sensor_id;sensor_type;location;lat;lon;timestamp;P1;durP1;ratioP1;P2;durP2;ratioP2
51738;SDS011;37815;52.692;6.226;2023-04-24T00:00:50;1.10;;;0.70;;
51738;SDS011;37815;52.692;6.226;2023-04-24T00:05:52;0.50;;;0.50;;
51738;SDS011;37815;52.692;6.226;2023-04-24T00:10:53;0.90;;;0.77;;
51738;SDS011;37815;52.692;6.226;2023-04-24T00:15:54;0.80;;;0.50;;
51738;SDS011;37815;52.692;6.226;2023-04-24T00:20:55;1.13;;;0.90;;
51738;SDS011;37815;52.692;6.226;2023-04-24T00:25:56;0.60;;;0.50;;
51738;SDS011;37815;52.692;6.226;2023-04-24T00:30:56;0.50;;;0.45;;
51738;SDS011;37815;52.692;6.226;2023-04-24T00:35:57;0.90;;;0.60;;
51738;SDS011;37815;52.692;6.226;2023-04-24T00:40:58;0.70;;;0.68;;
51738;SDS011;37815;52.692;6.226;2023-04-24T00:45:59;0.80;;;0.63;;
51738;SDS011;37815;52.692;6.226;2023-04-24T00:51:01;0.60;;;0.50;;
51738;SDS011;37815;52.692;6.226;2023-04-24T00:56:02;0.88;;;0.60;;
51738;SDS011;37815;52.692;6.226;2023-04-24T01:01:04;0.50;;;0.50;;
51738;SDS011;37815;52.692;6.226;2023-04-24T01:06:06;0.52;;;0.50;;
51738;SDS011;37815;52.692;6.226;2023-04-24T01:11:08;0.73;;;0.50;;
51738;SDS011;37815;52.692;6.226;2023-04-24T01:16:08;0.60;;;0.50;;
51738;SDS011;37815;52.692;6.226;2023-04-24T01:21:09;0.70;;;0.47;;
51738;SDS011;37815;52.692;6.226;2023-04-24T01:26:13;0.75;;;0.52;;
51738;SDS011;37815;52.692;6.226;2023-04-24T01:31:15;1.27;;;0.55;;
51738;SDS011;37815;52.692;6.226;2023-04-24T01:36:16;0.68;;;0.63;;
51738;SDS011;37815;52.692;6.226;2023-04-24T01:41:19;1.42;;;0.60;;
51738;SDS011;37815;52.692;6.226;2023-04-24T01:46:20;0.50;;;0.47;;
51738;SDS011;37815;52.692;6.226;2023-04-24T01:51:21;0.90;;;0.52;;
51738;SDS011;37815;52.692;6.226;2023-04-24T01:56:21;1.27;;;0.40;;
51738;SDS011;37815;52.692;6.226;2023-04-24T02:01:23;0.52;;;0.52;;
51738;SDS011;37815;52.692;6.226;2023-04-24T02:06:24;0.60;;;0.60;;
51738;SDS011;37815;52.692;6.226;2023-04-24T02:11:25;1.45;;;0.50;;
51738;SDS011;37815;52.692;6.226;2023-04-24T02:16:27;0.90;;;0.68;;
51738;SDS011;37815;52.692;6.226;2023-04-24T02:21:32;0.68;;;0.40;;
51738;SDS011;37815;52.692;6.226;2023-04-24T02:26:33;0.57;;;0.40;;
51738;SDS011;37815;52.692;6.226;2023-04-24T02:31:33;0.52;;;0.40;;
51738;SDS011;37815;52.692;6.226;2023-04-24T02:36:35;0.40;;;0.40;;
51738;SDS011;37815;52.692;6.226;2023-04-24T02:41:36;0.50;;;0.50;;
51738;SDS011;37815;52.692;6.226;2023-04-24T02:46:36;0.73;;;0.50;;
51738;SDS011;37815;52.692;6.226;2023-04-24T02:51:38;0.60;;;0.40;;
51738;SDS011;37815;52.692;6.226;2023-04-24T02:56:41;0.32;;;0.30;;
51738;SDS011;37815;52.692;6.226;2023-04-24T03:01:41;0.43;;;0.30;;
51738;SDS011;37815;52.692;6.226;2023-04-24T03:06:42;0.38;;;0.30;;
51738;SDS011;37815;52.692;6.226;2023-04-24T03:11:44;0.43;;;0.30;;
51738;SDS011;37815;52.692;6.226;2023-04-24T03:16:45;0.30;;;0.30;;
51738;SDS011;37815;52.692;6.226;2023-04-24T03:21:46;0.30;;;0.30;;
51738;SDS011;37815;52.692;6.226;2023-04-24T03:26:46;0.40;;;0.40;;
51738;SDS011;37815;52.692;6.226;2023-04-24T03:31:47;0.30;;;0.30;;
51738;SDS011;37815;52.692;6.226;2023-04-24T03:36:47;0.47;;;0.30;;
51738;SDS011;37815;52.692;6.226;2023-04-24T03:41:48;0.40;;;0.35;;
51738;SDS011;37815;52.692;6.226;2023-04-24T03:46:48;0.20;;;0.20;;
51738;SDS011;37815;52.692;6.226;2023-04-24T03:51:49;0.25;;;0.20;;
51738;SDS011;37815;52.692;6.226;2023-04-24T03:56:50;0.35;;;0.20;;
51738;SDS011;37815;52.692;6.226;2023-04-24T04:01:51;0.50;;;0.20;;
51738;SDS011;37815;52.692;6.226;2023-04-24T04:06:52;0.20;;;0.20;;
51738;SDS011;37815;52.692;6.226;2023-04-24T04:11:53;0.10;;;0.10;;
51738;SDS011;37815;52.692;6.226;2023-04-24T04:16:53;0.43;;;0.20;;
51738;SDS011;37815;52.692;6.226;2023-04-24T04:21:56;0.30;;;0.10;;
51738;SDS011;37815;52.692;6.226;2023-04-24T04:26:56;0.20;;;0.17;;
51738;SDS011;37815;52.692;6.226;2023-04-24T04:31:58;0.35;;;0.20;;
51738;SDS011;37815;52.692;6.226;2023-04-24T04:36:59;4.60;;;0.20;;
51738;SDS011;37815;52.692;6.226;2023-04-24T04:42:01;0.20;;;0.20;;
51738;SDS011;37815;52.692;6.226;2023-04-24T04:47:02;0.30;;;0.10;;
51738;SDS011;37815;52.692;6.226;2023-04-24T04:52:05;0.28;;;0.20;;
51738;SDS011;37815;52.692;6.226;2023-04-24T04:57:06;1.30;;;0.30;;
51738;SDS011;37815;52.692;6.226;2023-04-24T05:02:07;0.30;;;0.20;;
51738;SDS011;37815;52.692;6.226;2023-04-24T05:07:07;0.40;;;0.20;;
51738;SDS011;37815;52.692;6.226;2023-04-24T05:12:08;0.40;;;0.30;;
51738;SDS011;37815;52.692;6.226;2023-04-24T05:17:09;0.25;;;0.20;;
51738;SDS011;37815;52.692;6.226;2023-04-24T05:22:09;0.20;;;0.20;;
51738;SDS011;37815;52.692;6.226;2023-04-24T05:27:11;0.35;;;0.30;;
51738;SDS011;37815;52.692;6.226;2023-04-24T05:32:12;0.50;;;0.30;;
51738;SDS011;37815;52.692;6.226;2023-04-24T05:37:12;2.03;;;0.40;;
51738;SDS011;37815;52.692;6.226;2023-04-24T05:42:13;0.50;;;0.40;;
51738;SDS011;37815;52.692;6.226;2023-04-24T05:47:14;0.50;;;0.40;;
51738;SDS011;37815;52.692;6.226;2023-04-24T05:52:15;0.30;;;0.30;;
51738;SDS011;37815;52.692;6.226;2023-04-24T05:57:15;0.30;;;0.30;;
51738;SDS011;37815;52.692;6.226;2023-04-24T06:02:16;0.50;;;0.38;;
51738;SDS011;37815;52.692;6.226;2023-04-24T06:07:17;0.77;;;0.40;;
51738;SDS011;37815;52.692;6.226;2023-04-24T06:12:18;0.45;;;0.45;;
51738;SDS011;37815;52.692;6.226;2023-04-24T06:17:19;0.20;;;0.20;;
51738;SDS011;37815;52.692;6.226;2023-04-24T06:22:19;0.57;;;0.40;;
51738;SDS011;37815;52.692;6.226;2023-04-24T06:27:20;0.57;;;0.35;;
51738;SDS011;37815;52.692;6.226;2023-04-24T06:32:22;0.47;;;0.30;;
51738;SDS011;37815;52.692;6.226;2023-04-24T06:37:24;0.68;;;0.30;;
51738;SDS011;37815;52.692;6.226;2023-04-24T06:42:24;0.55;;;0.45;;
51738;SDS011;37815;52.692;6.226;2023-04-24T06:47:26;0.45;;;0.40;;
51738;SDS011;37815;52.692;6.226;2023-04-24T06:52:27;0.70;;;0.40;;
51738;SDS011;37815;52.692;6.226;2023-04-24T06:57:27;0.93;;;0.30;;
51738;SDS011;37815;52.692;6.226;2023-04-24T07:02:28;0.43;;;0.43;;
51738;SDS011;37815;52.692;6.226;2023-04-24T07:07:29;0.38;;;0.30;;
51738;SDS011;37815;52.692;6.226;2023-04-24T07:12:29;1.88;;;0.60;;
51738;SDS011;37815;52.692;6.226;2023-04-24T07:17:30;1.20;;;0.45;;
51738;SDS011;37815;52.692;6.226;2023-04-24T07:22:31;0.75;;;0.50;;
51738;SDS011;37815;52.692;6.226;2023-04-24T07:27:32;1.50;;;0.60;;
51738;SDS011;37815;52.692;6.226;2023-04-24T07:32:33;0.82;;;0.50;;
51738;SDS011;37815;52.692;6.226;2023-04-24T07:37:35;0.90;;;0.65;;
51738;SDS011;37815;52.692;6.226;2023-04-24T07:42:36;1.05;;;0.90;;
51738;SDS011;37815;52.692;6.226;2023-04-24T07:47:37;1.77;;;0.70;;
51738;SDS011;37815;52.692;6.226;2023-04-24T07:52:39;1.90;;;0.55;;
51738;SDS011;37815;52.692;6.226;2023-04-24T07:57:40;2.05;;;0.68;;
51738;SDS011;37815;52.692;6.226;2023-04-24T08:02:40;0.80;;;0.73;;
51738;SDS011;37815;52.692;6.226;2023-04-24T08:07:41;2.47;;;1.10;;
51738;SDS011;37815;52.692;6.226;2023-04-24T08:12:42;1.15;;;0.90;;
51738;SDS011;37815;52.692;6.226;2023-04-24T08:17:43;1.38;;;0.80;;
51738;SDS011;37815;52.692;6.226;2023-04-24T08:22:44;2.08;;;1.00;;
51738;SDS011;37815;52.692;6.226;2023-04-24T08:27:47;2.08;;;0.90;;
51738;SDS011;37815;52.692;6.226;2023-04-24T08:32:47;4.72;;;1.40;;
51738;SDS011;37815;52.692;6.226;2023-04-24T08:37:48;2.30;;;1.80;;
51738;SDS011;37815;52.692;6.226;2023-04-24T08:42:49;3.67;;;1.50;;
51738;SDS011;37815;52.692;6.226;2023-04-24T08:47:54;3.88;;;1.63;;
51738;SDS011;37815;52.692;6.226;2023-04-24T08:52:55;2.40;;;1.50;;
51738;SDS011;37815;52.692;6.226;2023-04-24T08:57:56;2.83;;;1.50;;
51738;SDS011;37815;52.692;6.226;2023-04-24T09:02:59;1.92;;;1.58;;
51738;SDS011;37815;52.692;6.226;2023-04-24T09:08:03;2.85;;;1.75;;
51738;SDS011;37815;52.692;6.226;2023-04-24T09:13:06;3.65;;;1.98;;
51738;SDS011;37815;52.692;6.226;2023-04-24T09:18:11;3.50;;;1.88;;
51738;SDS011;37815;52.692;6.226;2023-04-24T09:23:11;3.22;;;1.60;;
51738;SDS011;37815;52.692;6.226;2023-04-24T09:28:31;3.63;;;1.70;;
51738;SDS011;37815;52.692;6.226;2023-04-24T09:33:35;4.22;;;1.40;;
51738;SDS011;37815;52.692;6.226;2023-04-24T09:38:36;3.92;;;2.13;;
51738;SDS011;37815;52.692;6.226;2023-04-24T09:43:37;3.08;;;1.90;;
51738;SDS011;37815;52.692;6.226;2023-04-24T09:48:38;4.47;;;2.10;;
51738;SDS011;37815;52.692;6.226;2023-04-24T09:53:46;3.05;;;1.88;;
51738;SDS011;37815;52.692;6.226;2023-04-24T09:58:47;4.07;;;2.10;;
51738;SDS011;37815;52.692;6.226;2023-04-24T10:03:48;4.47;;;2.10;;
51738;SDS011;37815;52.692;6.226;2023-04-24T10:08:49;2.75;;;1.80;;
51738;SDS011;37815;52.692;6.226;2023-04-24T10:13:51;2.83;;;1.70;;
51738;SDS011;37815;52.692;6.226;2023-04-24T10:18:52;3.97;;;1.98;;
51738;SDS011;37815;52.692;6.226;2023-04-24T10:23:53;4.50;;;1.60;;
51738;SDS011;37815;52.692;6.226;2023-04-24T10:28:54;4.78;;;2.20;;
51738;SDS011;37815;52.692;6.226;2023-04-24T10:33:56;4.82;;;2.00;;
51738;SDS011;37815;52.692;6.226;2023-04-24T10:38:58;7.07;;;2.25;;
51738;SDS011;37815;52.692;6.226;2023-04-24T10:44:09;7.65;;;1.98;;
51738;SDS011;37815;52.692;6.226;2023-04-24T10:49:11;8.50;;;2.10;;
51738;SDS011;37815;52.692;6.226;2023-04-24T10:54:28;7.68;;;1.90;;
51738;SDS011;37815;52.692;6.226;2023-04-24T10:59:34;5.00;;;2.00;;
51738;SDS011;37815;52.692;6.226;2023-04-24T11:04:37;6.40;;;1.90;;
51738;SDS011;37815;52.692;6.226;2023-04-24T11:09:37;4.07;;;2.08;;
51738;SDS011;37815;52.692;6.226;2023-04-24T11:20:03;5.50;;;2.22;;
51738;SDS011;37815;52.692;6.226;2023-04-24T11:25:09;5.30;;;2.35;;
51738;SDS011;37815;52.692;6.226;2023-04-24T11:30:11;7.53;;;1.58;;
51738;SDS011;37815;52.692;6.226;2023-04-24T11:35:20;5.72;;;1.80;;
51738;SDS011;37815;52.692;6.226;2023-04-24T11:40:25;11.20;;;1.88;;
51738;SDS011;37815;52.692;6.226;2023-04-24T11:45:26;4.55;;;1.65;;
51738;SDS011;37815;52.692;6.226;2023-04-24T11:50:30;9.23;;;1.80;;
51738;SDS011;37815;52.692;6.226;2023-04-24T11:55:31;7.45;;;1.63;;
51738;SDS011;37815;52.692;6.226;2023-04-24T12:00:32;5.60;;;2.40;;
51738;SDS011;37815;52.692;6.226;2023-04-24T12:05:36;5.63;;;1.67;;
51738;SDS011;37815;52.692;6.226;2023-04-24T12:10:37;6.10;;;1.90;;
51738;SDS011;37815;52.692;6.226;2023-04-24T12:15:39;6.03;;;1.80;;
51738;SDS011;37815;52.692;6.226;2023-04-24T12:20:40;3.83;;;1.45;;
51738;SDS011;37815;52.692;6.226;2023-04-24T12:25:41;6.05;;;1.70;;
51738;SDS011;37815;52.692;6.226;2023-04-24T12:30:42;4.65;;;1.80;;
51738;SDS011;37815;52.692;6.226;2023-04-24T12:35:44;2.42;;;1.48;;
51738;SDS011;37815;52.692;6.226;2023-04-24T12:40:45;3.53;;;1.48;;
51738;SDS011;37815;52.692;6.226;2023-04-24T12:45:47;3.08;;;1.30;;
51738;SDS011;37815;52.692;6.226;2023-04-24T12:50:48;6.25;;;1.38;;
51738;SDS011;37815;52.692;6.226;2023-04-24T12:55:49;4.35;;;1.65;;
51738;SDS011;37815;52.692;6.226;2023-04-24T13:00:52;2.42;;;1.10;;
51738;SDS011;37815;52.692;6.226;2023-04-24T13:05:54;3.83;;;1.25;;
51738;SDS011;37815;52.692;6.226;2023-04-24T13:10:54;1.33;;;0.95;;
51738;SDS011;37815;52.692;6.226;2023-04-24T13:15:55;3.28;;;1.17;;
51738;SDS011;37815;52.692;6.226;2023-04-24T13:20:57;3.88;;;1.10;;
51738;SDS011;37815;52.692;6.226;2023-04-24T13:25:59;2.30;;;1.10;;
51738;SDS011;37815;52.692;6.226;2023-04-24T13:31:01;4.47;;;1.17;;
51738;SDS011;37815;52.692;6.226;2023-04-24T13:36:01;2.30;;;0.90;;
51738;SDS011;37815;52.692;6.226;2023-04-24T13:41:02;1.98;;;0.80;;
51738;SDS011;37815;52.692;6.226;2023-04-24T13:46:03;3.00;;;0.65;;
51738;SDS011;37815;52.692;6.226;2023-04-24T13:51:03;3.42;;;0.82;;
51738;SDS011;37815;52.692;6.226;2023-04-24T13:56:04;2.28;;;0.80;;
51738;SDS011;37815;52.692;6.226;2023-04-24T14:01:05;4.80;;;1.10;;
51738;SDS011;37815;52.692;6.226;2023-04-24T14:06:06;5.22;;;1.17;;
51738;SDS011;37815;52.692;6.226;2023-04-24T14:11:08;2.58;;;0.82;;
51738;SDS011;37815;52.692;6.226;2023-04-24T14:16:09;5.35;;;1.25;;
51738;SDS011;37815;52.692;6.226;2023-04-24T14:21:10;2.30;;;0.93;;
51738;SDS011;37815;52.692;6.226;2023-04-24T14:26:11;2.75;;;1.00;;
51738;SDS011;37815;52.692;6.226;2023-04-24T14:31:12;2.60;;;0.95;;
51738;SDS011;37815;52.692;6.226;2023-04-24T14:36:12;2.55;;;1.10;;
51738;SDS011;37815;52.692;6.226;2023-04-24T14:41:15;2.78;;;1.45;;
51738;SDS011;37815;52.692;6.226;2023-04-24T14:46:16;2.30;;;1.05;;
51738;SDS011;37815;52.692;6.226;2023-04-24T14:51:20;2.70;;;0.90;;
51738;SDS011;37815;52.692;6.226;2023-04-24T14:56:21;2.72;;;0.90;;
51738;SDS011;37815;52.692;6.226;2023-04-24T15:01:21;5.75;;;1.27;;
51738;SDS011;37815;52.692;6.226;2023-04-24T15:06:22;2.58;;;0.90;;
51738;SDS011;37815;52.692;6.226;2023-04-24T15:11:22;6.18;;;1.55;;
51738;SDS011;37815;52.692;6.226;2023-04-24T15:16:23;3.00;;;1.00;;
51738;SDS011;37815;52.692;6.226;2023-04-24T15:21:24;3.30;;;1.45;;
51738;SDS011;37815;52.692;6.226;2023-04-24T15:26:25;10.27;;;1.80;;
51738;SDS011;37815;52.692;6.226;2023-04-24T15:31:26;3.95;;;1.30;;
51738;SDS011;37815;52.692;6.226;2023-04-24T15:36:27;11.57;;;2.05;;
51738;SDS011;37815;52.692;6.226;2023-04-24T15:41:28;4.05;;;2.00;;
51738;SDS011;37815;52.692;6.226;2023-04-24T15:46:29;7.10;;;2.00;;
51738;SDS011;37815;52.692;6.226;2023-04-24T15:51:30;6.63;;;1.70;;
51738;SDS011;37815;52.692;6.226;2023-04-24T15:56:30;9.60;;;2.00;;
51738;SDS011;37815;52.692;6.226;2023-04-24T16:01:37;5.72;;;1.73;;
51738;SDS011;37815;52.692;6.226;2023-04-24T16:06:37;6.03;;;1.88;;
51738;SDS011;37815;52.692;6.226;2023-04-24T16:11:38;3.85;;;1.85;;
51738;SDS011;37815;52.692;6.226;2023-04-24T16:16:38;9.02;;;2.17;;
51738;SDS011;37815;52.692;6.226;2023-04-24T16:21:39;5.10;;;1.52;;
51738;SDS011;37815;52.692;6.226;2023-04-24T16:26:40;8.70;;;1.55;;
51738;SDS011;37815;52.692;6.226;2023-04-24T16:31:41;5.97;;;1.60;;
51738;SDS011;37815;52.692;6.226;2023-04-24T16:36:42;5.25;;;2.28;;
51738;SDS011;37815;52.692;6.226;2023-04-24T16:41:42;3.67;;;1.42;;
51738;SDS011;37815;52.692;6.226;2023-04-24T16:46:44;2.47;;;1.48;;
51738;SDS011;37815;52.692;6.226;2023-04-24T16:51:44;5.53;;;1.55;;
51738;SDS011;37815;52.692;6.226;2023-04-24T16:56:45;4.03;;;1.65;;
51738;SDS011;37815;52.692;6.226;2023-04-24T17:01:46;6.20;;;1.58;;
51738;SDS011;37815;52.692;6.226;2023-04-24T17:06:47;4.78;;;1.55;;
51738;SDS011;37815;52.692;6.226;2023-04-24T17:11:48;4.28;;;1.60;;
51738;SDS011;37815;52.692;6.226;2023-04-24T17:16:50;5.18;;;1.63;;
51738;SDS011;37815;52.692;6.226;2023-04-24T17:21:51;5.65;;;1.90;;
51738;SDS011;37815;52.692;6.226;2023-04-24T17:26:52;3.50;;;1.27;;
51738;SDS011;37815;52.692;6.226;2023-04-24T17:31:53;3.28;;;1.40;;
51738;SDS011;37815;52.692;6.226;2023-04-24T17:36:54;4.28;;;1.60;;
51738;SDS011;37815;52.692;6.226;2023-04-24T17:41:55;4.75;;;1.52;;
51738;SDS011;37815;52.692;6.226;2023-04-24T17:46:57;4.78;;;1.40;;
51738;SDS011;37815;52.692;6.226;2023-04-24T17:51:58;5.55;;;1.73;;
51738;SDS011;37815;52.692;6.226;2023-04-24T17:56:58;4.75;;;1.55;;
51738;SDS011;37815;52.692;6.226;2023-04-24T18:01:59;7.93;;;1.80;;
51738;SDS011;37815;52.692;6.226;2023-04-24T18:07:00;4.18;;;1.58;;
51738;SDS011;37815;52.692;6.226;2023-04-24T18:12:00;4.47;;;1.80;;
51738;SDS011;37815;52.692;6.226;2023-04-24T18:17:01;2.30;;;1.60;;
51738;SDS011;37815;52.692;6.226;2023-04-24T18:22:02;9.48;;;1.80;;
51738;SDS011;37815;52.692;6.226;2023-04-24T18:27:03;3.08;;;1.60;;
51738;SDS011;37815;52.692;6.226;2023-04-24T18:32:04;2.70;;;1.50;;
51738;SDS011;37815;52.692;6.226;2023-04-24T18:37:06;7.00;;;1.60;;
51738;SDS011;37815;52.692;6.226;2023-04-24T18:42:06;3.40;;;1.70;;
51738;SDS011;37815;52.692;6.226;2023-04-24T18:47:07;2.97;;;1.50;;
51738;SDS011;37815;52.692;6.226;2023-04-24T18:52:08;2.53;;;1.60;;
51738;SDS011;37815;52.692;6.226;2023-04-24T18:57:09;1.70;;;1.25;;
51738;SDS011;37815;52.692;6.226;2023-04-24T19:02:10;2.97;;;1.23;;
51738;SDS011;37815;52.692;6.226;2023-04-24T19:07:17;3.22;;;1.30;;
51738;SDS011;37815;52.692;6.226;2023-04-24T19:12:18;3.33;;;1.50;;
51738;SDS011;37815;52.692;6.226;2023-04-24T19:17:19;3.85;;;1.42;;
51738;SDS011;37815;52.692;6.226;2023-04-24T19:22:23;3.05;;;1.30;;
51738;SDS011;37815;52.692;6.226;2023-04-24T19:27:23;2.67;;;1.38;;
51738;SDS011;37815;52.692;6.226;2023-04-24T19:32:24;3.13;;;1.60;;
51738;SDS011;37815;52.692;6.226;2023-04-24T19:37:25;3.88;;;1.48;;
51738;SDS011;37815;52.692;6.226;2023-04-24T19:42:26;4.75;;;1.70;;
51738;SDS011;37815;52.692;6.226;2023-04-24T19:47:26;4.03;;;1.67;;
51738;SDS011;37815;52.692;6.226;2023-04-24T19:52:27;4.00;;;1.33;;
51738;SDS011;37815;52.692;6.226;2023-04-24T19:57:28;4.47;;;1.73;;
51738;SDS011;37815;52.692;6.226;2023-04-24T20:02:29;4.93;;;1.77;;
51738;SDS011;37815;52.692;6.226;2023-04-24T20:07:30;2.88;;;1.60;;
51738;SDS011;37815;52.692;6.226;2023-04-24T20:12:30;3.88;;;1.65;;
51738;SDS011;37815;52.692;6.226;2023-04-24T20:17:31;2.65;;;1.50;;
51738;SDS011;37815;52.692;6.226;2023-04-24T20:22:33;4.25;;;1.58;;
51738;SDS011;37815;52.692;6.226;2023-04-24T20:27:38;3.30;;;1.63;;
51738;SDS011;37815;52.692;6.226;2023-04-24T20:32:40;2.92;;;1.70;;
51738;SDS011;37815;52.692;6.226;2023-04-24T20:37:42;4.63;;;1.90;;
51738;SDS011;37815;52.692;6.226;2023-04-24T20:42:42;3.47;;;1.55;;
51738;SDS011;37815;52.692;6.226;2023-04-24T20:47:45;3.53;;;1.90;;
51738;SDS011;37815;52.692;6.226;2023-04-24T20:52:45;2.47;;;1.52;;
51738;SDS011;37815;52.692;6.226;2023-04-24T20:57:46;5.05;;;1.98;;
51738;SDS011;37815;52.692;6.226;2023-04-24T21:02:47;3.13;;;1.88;;
51738;SDS011;37815;52.692;6.226;2023-04-24T21:07:48;2.53;;;1.33;;
51738;SDS011;37815;52.692;6.226;2023-04-24T21:12:51;4.10;;;2.10;;
51738;SDS011;37815;52.692;6.226;2023-04-24T21:17:51;3.75;;;1.40;;
51738;SDS011;37815;52.692;6.226;2023-04-24T21:22:52;2.85;;;1.30;;
51738;SDS011;37815;52.692;6.226;2023-04-24T21:27:53;4.45;;;1.45;;
51738;SDS011;37815;52.692;6.226;2023-04-24T21:32:53;3.75;;;1.30;;
51738;SDS011;37815;52.692;6.226;2023-04-24T21:37:55;4.53;;;1.60;;
51738;SDS011;37815;52.692;6.226;2023-04-24T21:42:56;1.50;;;1.00;;
51738;SDS011;37815;52.692;6.226;2023-04-24T21:47:56;2.60;;;1.52;;
51738;SDS011;37815;52.692;6.226;2023-04-24T21:52:58;3.58;;;1.75;;
51738;SDS011;37815;52.692;6.226;2023-04-24T21:57:59;2.72;;;1.50;;
51738;SDS011;37815;52.692;6.226;2023-04-24T22:02:59;3.50;;;1.42;;
51738;SDS011;37815;52.692;6.226;2023-04-24T22:08:00;3.40;;;1.75;;
51738;SDS011;37815;52.692;6.226;2023-04-24T22:13:01;2.85;;;1.50;;
51738;SDS011;37815;52.692;6.226;2023-04-24T22:18:02;2.67;;;1.50;;
51738;SDS011;37815;52.692;6.226;2023-04-24T22:23:04;4.65;;;1.50;;
51738;SDS011;37815;52.692;6.226;2023-04-24T22:28:04;3.92;;;1.52;;
51738;SDS011;37815;52.692;6.226;2023-04-24T22:33:05;4.75;;;1.55;;
51738;SDS011;37815;52.692;6.226;2023-04-24T22:38:06;3.05;;;1.60;;
51738;SDS011;37815;52.692;6.226;2023-04-24T22:43:07;4.10;;;1.55;;
51738;SDS011;37815;52.692;6.226;2023-04-24T22:48:07;6.53;;;2.40;;
51738;SDS011;37815;52.692;6.226;2023-04-24T22:53:08;2.63;;;1.60;;
51738;SDS011;37815;52.692;6.226;2023-04-24T22:58:09;5.75;;;2.22;;
51738;SDS011;37815;52.692;6.226;2023-04-24T23:03:09;3.35;;;1.55;;
51738;SDS011;37815;52.692;6.226;2023-04-24T23:08:10;6.00;;;1.90;;
51738;SDS011;37815;52.692;6.226;2023-04-24T23:13:11;4.22;;;1.60;;
51738;SDS011;37815;52.692;6.226;2023-04-24T23:18:12;5.35;;;2.15;;
51738;SDS011;37815;52.692;6.226;2023-04-24T23:23:12;5.70;;;2.05;;
51738;SDS011;37815;52.692;6.226;2023-04-24T23:28:15;7.75;;;1.73;;
51738;SDS011;37815;52.692;6.226;2023-04-24T23:33:15;5.38;;;1.95;;
51738;SDS011;37815;52.692;6.226;2023-04-24T23:38:16;8.60;;;1.98;;
51738;SDS011;37815;52.692;6.226;2023-04-24T23:43:16;4.35;;;1.88;;
51738;SDS011;37815;52.692;6.226;2023-04-24T23:48:17;5.55;;;1.90;;
51738;SDS011;37815;52.692;6.226;2023-04-24T23:53:17;3.75;;;1.73;;
51738;SDS011;37815;52.692;6.226;2023-04-24T23:58:18;3.55;;;1.65;;
